sensor_id;sensor_type;location;lat;lon;timestamp;pressure;altitude;pressure_sealevel;temperature;humidity
31096;BME280;17749;51.962;8.560;2023-06-14T05:02:55;100182.78;;;15.44;98.43
31096;BME280;17749;51.962;8.560;2023-06-14T05:05:22;100191.63;;;15.46;98.32
31096;BME280;17749;51.962;8.560;2023-06-14T05:07:49;100192.56;;;15.45;98.96
31096;BME280;17749;51.962;8.560;2023-06-14T05:10:16;100186.25;;;15.46;99.61
31096;BME280;17749;51.962;8.560;2023-06-14T05:12:43;100184.31;;;15.48;99.25
31096;BME280;17749;51.962;8.560;2023-06-14T05:15:12;100194.72;;;15.54;99.69
31096;BME280;17749;51.962;8.560;2023-06-14T05:17:39;100196.06;;;15.61;99.76
31096;BME280;17749;51.962;8.560;2023-06-14T05:20:07;100195.72;;;15.67;99.91
31096;BME280;17749;51.962;8.560;2023-06-14T05:22:36;100197.06;;;15.74;99.59
31096;BME280;17749;51.962;8.560;2023-06-14T05:25:03;100191.53;;;15.77;99.40
31096;BME280;17749;51.962;8.560;2023-06-14T05:27:31;100189.25;;;15.86;98.73
31096;BME280;17749;51.962;8.560;2023-06-14T05:29:58;100190.63;;;15.93;99.05
31096;BME280;17749;51.962;8.560;2023-06-14T05:32:25;100184.69;;;16.02;99.64
31096;BME280;17749;51.962;8.560;2023-06-14T05:34:53;100193.03;;;16.12;99.08
31096;BME280;17749;51.962;8.560;2023-06-14T05:37:20;100188.50;;;16.27;98.92
31096;BME280;17749;51.962;8.560;2023-06-14T05:39:47;100186.91;;;16.38;98.71
31096;BME280;17749;51.962;8.560;2023-06-14T05:42:13;100193.88;;;16.55;98.12
31096;BME280;17749;51.962;8.560;2023-06-14T05:44:40;100194.44;;;16.75;97.81
31096;BME280;17749;51.962;8.560;2023-06-14T05:47:07;100211.84;;;16.98;97.51
31096;BME280;17749;51.962;8.560;2023-06-14T05:49:34;100205.25;;;17.16;96.71
31096;BME280;17749;51.962;8.560;2023-06-14T05:52:02;100207.59;;;17.21;95.73
31096;BME280;17749;51.962;8.560;2023-06-14T05:54:29;100212.19;;;17.33;95.74
31096;BME280;17749;51.962;8.560;2023-06-14T05:56:56;100216.34;;;17.51;94.34
31096;BME280;17749;51.962;8.560;2023-06-14T05:59:28;100215.09;;;17.70;94.62
31096;BME280;17749;51.962;8.560;2023-06-14T06:01:54;100217.22;;;17.79;93.94
31096;BME280;17749;51.962;8.560;2023-06-14T06:04:23;100221.88;;;18.03;93.14
31096;BME280;17749;51.962;8.560;2023-06-14T06:06:50;100218.63;;;18.23;92.75
31096;BME280;17749;51.962;8.560;2023-06-14T06:09:17;100219.72;;;18.46;92.77
31096;BME280;17749;51.962;8.560;2023-06-14T06:11:44;100229.19;;;18.77;91.50
31096;BME280;17749;51.962;8.560;2023-06-14T06:14:20;100223.50;;;19.06;89.87
31096;BME280;17749;51.962;8.560;2023-06-14T06:16:47;100218.31;;;19.16;89.02
31096;BME280;17749;51.962;8.560;2023-06-14T06:19:14;100222.84;;;19.15;87.00
31096;BME280;17749;51.962;8.560;2023-06-14T06:21:41;100226.56;;;19.25;87.69
31096;BME280;17749;51.962;8.560;2023-06-14T06:24:08;100224.22;;;19.45;87.68
31096;BME280;17749;51.962;8.560;2023-06-14T06:26:36;100220.78;;;19.43;85.85
31096;BME280;17749;51.962;8.560;2023-06-14T06:29:03;100219.28;;;19.63;84.94
31096;BME280;17749;51.962;8.560;2023-06-14T06:31:30;100223.06;;;19.60;83.90
31096;BME280;17749;51.962;8.560;2023-06-14T06:33:57;100219.34;;;19.50;83.72
31096;BME280;17749;51.962;8.560;2023-06-14T06:36:25;100224.78;;;19.61;83.61
31096;BME280;17749;51.962;8.560;2023-06-14T06:42:28;100236.66;;;19.72;82.84
31096;BME280;17749;51.962;8.560;2023-06-14T06:44:57;100226.84;;;19.82;82.88
31096;BME280;17749;51.962;8.560;2023-06-14T06:47:25;100225.69;;;20.08;81.56
31096;BME280;17749;51.962;8.560;2023-06-14T06:49:52;100235.81;;;20.29;80.10
31096;BME280;17749;51.962;8.560;2023-06-14T06:52:21;100238.19;;;20.56;80.82
31096;BME280;17749;51.962;8.560;2023-06-14T06:54:50;100235.63;;;20.77;78.66
31096;BME280;17749;51.962;8.560;2023-06-14T06:57:26;100240.28;;;20.75;79.23
31096;BME280;17749;51.962;8.560;2023-06-14T06:59:55;100240.31;;;20.86;78.26
31096;BME280;17749;51.962;8.560;2023-06-14T07:02:25;100246.56;;;20.64;79.11
31096;BME280;17749;51.962;8.560;2023-06-14T07:04:53;100244.00;;;20.63;78.31
31096;BME280;17749;51.962;8.560;2023-06-14T07:07:20;100247.66;;;20.95;78.71
31096;BME280;17749;51.962;8.560;2023-06-14T07:09:49;100247.16;;;21.13;77.47
31096;BME280;17749;51.962;8.560;2023-06-14T07:12:23;100245.53;;;21.21;77.57
31096;BME280;17749;51.962;8.560;2023-06-14T07:14:53;100240.38;;;21.41;76.76
31096;BME280;17749;51.962;8.560;2023-06-14T07:17:26;100252.66;;;21.77;76.46
31096;BME280;17749;51.962;8.560;2023-06-14T07:20:03;100244.75;;;22.06;76.10
31096;BME280;17749;51.962;8.560;2023-06-14T07:22:41;100243.97;;;22.37;75.80
31096;BME280;17749;51.962;8.560;2023-06-14T07:25:26;100252.00;;;22.06;75.26
31096;BME280;17749;51.962;8.560;2023-06-14T07:28:01;100261.41;;;22.02;74.81
31096;BME280;17749;51.962;8.560;2023-06-14T07:30:35;100261.94;;;21.75;74.61
31096;BME280;17749;51.962;8.560;2023-06-14T07:33:05;100268.94;;;21.77;74.82
31096;BME280;17749;51.962;8.560;2023-06-14T07:35:33;100265.63;;;21.95;73.91
31096;BME280;17749;51.962;8.560;2023-06-14T07:37:59;100270.66;;;21.78;73.70
31096;BME280;17749;51.962;8.560;2023-06-14T07:40:26;100275.69;;;21.83;73.86
31096;BME280;17749;51.962;8.560;2023-06-14T07:42:54;100272.63;;;21.76;73.37
31096;BME280;17749;51.962;8.560;2023-06-14T07:45:21;100269.00;;;22.08;73.15
31096;BME280;17749;51.962;8.560;2023-06-14T07:47:48;100269.59;;;22.23;73.09
31096;BME280;17749;51.962;8.560;2023-06-14T07:50:15;100269.59;;;22.23;72.82
31096;BME280;17749;51.962;8.560;2023-06-14T07:52:42;100265.41;;;22.40;73.27
31096;BME280;17749;51.962;8.560;2023-06-14T07:55:12;100271.59;;;22.72;71.99
31096;BME280;17749;51.962;8.560;2023-06-14T07:57:40;100262.91;;;23.09;71.97
31096;BME280;17749;51.962;8.560;2023-06-14T08:00:08;100262.44;;;23.54;70.63
31096;BME280;17749;51.962;8.560;2023-06-14T08:02:43;100264.00;;;23.57;71.08
31096;BME280;17749;51.962;8.560;2023-06-14T08:05:14;100268.13;;;23.32;70.46
31096;BME280;17749;51.962;8.560;2023-06-14T08:07:44;100277.66;;;23.26;69.82
31096;BME280;17749;51.962;8.560;2023-06-14T08:10:11;100269.59;;;23.05;70.26
31096;BME280;17749;51.962;8.560;2023-06-14T08:12:38;100271.94;;;23.19;71.37
31096;BME280;17749;51.962;8.560;2023-06-14T08:15:05;100263.38;;;22.93;70.86
31096;BME280;17749;51.962;8.560;2023-06-14T08:17:40;100272.34;;;22.84;71.53
31096;BME280;17749;51.962;8.560;2023-06-14T08:20:07;100270.69;;;22.62;71.36
31096;BME280;17749;51.962;8.560;2023-06-14T08:22:35;100270.31;;;22.46;71.49
31096;BME280;17749;51.962;8.560;2023-06-14T08:25:03;100267.88;;;22.73;71.35
31096;BME280;17749;51.962;8.560;2023-06-14T08:27:31;100267.34;;;22.80;72.22
31096;BME280;17749;51.962;8.560;2023-06-14T08:29:58;100268.38;;;22.88;72.19
31096;BME280;17749;51.962;8.560;2023-06-14T08:32:25;100259.47;;;23.07;71.28
31096;BME280;17749;51.962;8.560;2023-06-14T08:34:52;100266.97;;;22.94;71.59
31096;BME280;17749;51.962;8.560;2023-06-14T08:37:31;100265.66;;;23.19;71.13
31096;BME280;17749;51.962;8.560;2023-06-14T08:40:00;100268.47;;;22.77;72.13
31096;BME280;17749;51.962;8.560;2023-06-14T08:42:31;100272.03;;;22.99;71.94
31096;BME280;17749;51.962;8.560;2023-06-14T08:44:59;100266.81;;;23.36;72.41
31096;BME280;17749;51.962;8.560;2023-06-14T08:47:27;100290.19;;;23.68;71.86
31096;BME280;17749;51.962;8.560;2023-06-14T08:50:07;100290.47;;;23.55;70.42
31096;BME280;17749;51.962;8.560;2023-06-14T08:52:54;100282.81;;;23.19;70.33
31096;BME280;17749;51.962;8.560;2023-06-14T08:55:23;100273.97;;;23.27;71.05
31096;BME280;17749;51.962;8.560;2023-06-14T08:57:55;100275.06;;;23.15;70.17
31096;BME280;17749;51.962;8.560;2023-06-14T09:00:26;100281.66;;;22.91;72.34
31096;BME280;17749;51.962;8.560;2023-06-14T09:02:54;100281.88;;;23.00;71.48
31096;BME280;17749;51.962;8.560;2023-06-14T09:05:26;100279.69;;;22.93;70.97
31096;BME280;17749;51.962;8.560;2023-06-14T09:07:54;100274.88;;;22.97;70.30
31096;BME280;17749;51.962;8.560;2023-06-14T09:10:22;100278.44;;;23.38;71.26
31096;BME280;17749;51.962;8.560;2023-06-14T09:12:50;100288.19;;;23.50;70.18
31096;BME280;17749;51.962;8.560;2023-06-14T09:15:17;100291.50;;;23.63;70.74
31096;BME280;17749;51.962;8.560;2023-06-14T09:17:44;100281.38;;;23.85;70.17
31096;BME280;17749;51.962;8.560;2023-06-14T09:20:12;100288.50;;;23.86;69.85
31096;BME280;17749;51.962;8.560;2023-06-14T09:22:46;100283.06;;;23.67;68.89
31096;BME280;17749;51.962;8.560;2023-06-14T09:25:13;100293.09;;;23.76;69.46
31096;BME280;17749;51.962;8.560;2023-06-14T09:27:59;100287.66;;;23.76;69.23
31096;BME280;17749;51.962;8.560;2023-06-14T09:30:26;100283.63;;;23.70;68.55
31096;BME280;17749;51.962;8.560;2023-06-14T09:32:53;100287.31;;;23.40;69.30
31096;BME280;17749;51.962;8.560;2023-06-14T09:35:20;100292.44;;;23.43;70.78
31096;BME280;17749;51.962;8.560;2023-06-14T09:37:47;100285.81;;;23.76;68.65
31096;BME280;17749;51.962;8.560;2023-06-14T09:40:20;100287.81;;;23.94;68.77
31096;BME280;17749;51.962;8.560;2023-06-14T09:42:47;100293.69;;;24.09;69.42
31096;BME280;17749;51.962;8.560;2023-06-14T09:45:15;100293.94;;;24.25;72.47
31096;BME280;17749;51.962;8.560;2023-06-14T09:47:48;100293.34;;;24.41;67.75
31096;BME280;17749;51.962;8.560;2023-06-14T09:50:31;100290.88;;;24.67;68.66
31096;BME280;17749;51.962;8.560;2023-06-14T09:53:03;100298.50;;;25.01;68.53
31096;BME280;17749;51.962;8.560;2023-06-14T09:55:34;100297.03;;;24.69;66.75
31096;BME280;17749;51.962;8.560;2023-06-14T09:58:07;100293.31;;;24.70;67.12
31096;BME280;17749;51.962;8.560;2023-06-14T10:00:36;100292.53;;;24.87;67.67
31096;BME280;17749;51.962;8.560;2023-06-14T10:03:16;100293.78;;;24.56;66.66
31096;BME280;17749;51.962;8.560;2023-06-14T10:05:48;100287.66;;;23.86;67.50
31096;BME280;17749;51.962;8.560;2023-06-14T10:08:19;100288.25;;;24.09;67.46
31096;BME280;17749;51.962;8.560;2023-06-14T10:10:46;100291.94;;;24.17;67.21
31096;BME280;17749;51.962;8.560;2023-06-14T10:13:15;100294.25;;;24.12;66.53
31096;BME280;17749;51.962;8.560;2023-06-14T10:16:10;100286.94;;;24.32;66.86
31096;BME280;17749;51.962;8.560;2023-06-14T10:18:59;100286.63;;;24.25;67.57
31096;BME280;17749;51.962;8.560;2023-06-14T10:21:33;100280.63;;;24.02;66.44
31096;BME280;17749;51.962;8.560;2023-06-14T10:24:06;100288.78;;;24.32;67.33
31096;BME280;17749;51.962;8.560;2023-06-14T10:26:35;100282.63;;;24.39;66.47
31096;BME280;17749;51.962;8.560;2023-06-14T10:29:08;100285.09;;;24.13;65.82
31096;BME280;17749;51.962;8.560;2023-06-14T10:34:09;100281.34;;;24.04;65.59
31096;BME280;17749;51.962;8.560;2023-06-14T10:36:37;100283.94;;;24.16;65.57
31096;BME280;17749;51.962;8.560;2023-06-14T10:39:10;100279.91;;;24.20;66.22
31096;BME280;17749;51.962;8.560;2023-06-14T10:41:39;100270.41;;;24.43;65.82
31096;BME280;17749;51.962;8.560;2023-06-14T10:46:40;100274.41;;;25.33;67.03
31096;BME280;17749;51.962;8.560;2023-06-14T10:49:10;100277.88;;;25.71;66.00
31096;BME280;17749;51.962;8.560;2023-06-14T10:51:42;100273.06;;;25.65;65.40
31096;BME280;17749;51.962;8.560;2023-06-14T10:54:13;100272.66;;;25.78;65.22
31096;BME280;17749;51.962;8.560;2023-06-14T10:56:50;100283.19;;;25.73;64.39
31096;BME280;17749;51.962;8.560;2023-06-14T10:59:19;100269.88;;;25.24;63.93
31096;BME280;17749;51.962;8.560;2023-06-14T11:02:03;100272.06;;;25.21;64.75
31096;BME280;17749;51.962;8.560;2023-06-14T11:04:52;100269.56;;;25.27;64.65
31096;BME280;17749;51.962;8.560;2023-06-14T11:13:03;100270.00;;;25.50;65.11
31096;BME280;17749;51.962;8.560;2023-06-14T11:15:31;100264.97;;;25.73;64.33
31096;BME280;17749;51.962;8.560;2023-06-14T11:18:00;100266.03;;;25.80;63.41
31096;BME280;17749;51.962;8.560;2023-06-14T11:20:30;100259.81;;;25.70;63.55
31096;BME280;17749;51.962;8.560;2023-06-14T11:22:58;100271.50;;;25.63;62.67
31096;BME280;17749;51.962;8.560;2023-06-14T11:25:26;100258.72;;;25.63;62.87
31096;BME280;17749;51.962;8.560;2023-06-14T11:27:55;100260.59;;;25.98;64.43
31096;BME280;17749;51.962;8.560;2023-06-14T11:30:23;100258.56;;;26.18;63.79
31096;BME280;17749;51.962;8.560;2023-06-14T11:32:51;100269.94;;;25.96;62.57
31096;BME280;17749;51.962;8.560;2023-06-14T11:35:39;100255.34;;;25.69;61.55
31096;BME280;17749;51.962;8.560;2023-06-14T11:38:06;100246.72;;;25.56;61.91
31096;BME280;17749;51.962;8.560;2023-06-14T11:40:33;100251.84;;;25.59;61.97
31096;BME280;17749;51.962;8.560;2023-06-14T11:43:01;100244.91;;;25.83;61.98
31096;BME280;17749;51.962;8.560;2023-06-14T11:45:29;100250.19;;;25.94;61.95
31096;BME280;17749;51.962;8.560;2023-06-14T11:47:58;100241.44;;;25.90;62.59
31096;BME280;17749;51.962;8.560;2023-06-14T11:50:26;100242.72;;;26.04;61.34
31096;BME280;17749;51.962;8.560;2023-06-14T11:52:58;100248.66;;;25.82;61.26
31096;BME280;17749;51.962;8.560;2023-06-14T11:55:37;100245.56;;;25.94;61.58
31096;BME280;17749;51.962;8.560;2023-06-14T11:58:06;100241.72;;;26.05;60.82
31096;BME280;17749;51.962;8.560;2023-06-14T12:00:35;100245.47;;;26.04;60.03
31096;BME280;17749;51.962;8.560;2023-06-14T12:03:03;100243.38;;;25.98;61.42
31096;BME280;17749;51.962;8.560;2023-06-14T12:05:30;100258.16;;;25.59;60.01
31096;BME280;17749;51.962;8.560;2023-06-14T12:08:03;100251.44;;;25.54;61.36
31096;BME280;17749;51.962;8.560;2023-06-14T12:10:40;100245.91;;;25.46;61.70
31096;BME280;17749;51.962;8.560;2023-06-14T12:13:10;100245.59;;;25.49;61.61
31096;BME280;17749;51.962;8.560;2023-06-14T12:15:37;100249.03;;;25.51;61.61
31096;BME280;17749;51.962;8.560;2023-06-14T12:18:07;100243.72;;;25.31;62.35
31096;BME280;17749;51.962;8.560;2023-06-14T12:20:35;100240.38;;;25.38;62.16
31096;BME280;17749;51.962;8.560;2023-06-14T12:23:03;100237.22;;;25.60;61.11
31096;BME280;17749;51.962;8.560;2023-06-14T12:25:33;100241.41;;;25.36;61.77
31096;BME280;17749;51.962;8.560;2023-06-14T12:28:08;100245.00;;;25.55;62.60
31096;BME280;17749;51.962;8.560;2023-06-14T12:30:37;100247.97;;;25.79;62.02
31096;BME280;17749;51.962;8.560;2023-06-14T12:33:05;100235.47;;;25.59;60.88
31096;BME280;17749;51.962;8.560;2023-06-14T12:35:32;100237.34;;;25.41;61.03
31096;BME280;17749;51.962;8.560;2023-06-14T12:38:00;100239.34;;;25.39;60.94
31096;BME280;17749;51.962;8.560;2023-06-14T12:40:27;100229.16;;;25.41;60.52
31096;BME280;17749;51.962;8.560;2023-06-14T12:42:54;100230.88;;;25.59;63.26
31096;BME280;17749;51.962;8.560;2023-06-14T12:45:21;100231.22;;;25.92;61.75
31096;BME280;17749;51.962;8.560;2023-06-14T12:47:49;100241.59;;;25.89;59.42
31096;BME280;17749;51.962;8.560;2023-06-14T12:50:16;100254.13;;;25.64;60.07
31096;BME280;17749;51.962;8.560;2023-06-14T12:52:44;100244.56;;;25.04;60.73
31096;BME280;17749;51.962;8.560;2023-06-14T12:55:11;100239.50;;;25.19;61.42
31096;BME280;17749;51.962;8.560;2023-06-14T12:57:38;100236.81;;;25.37;61.57
31096;BME280;17749;51.962;8.560;2023-06-14T13:00:05;100232.69;;;25.69;62.50
31096;BME280;17749;51.962;8.560;2023-06-14T13:02:33;100228.34;;;25.76;61.31
31096;BME280;17749;51.962;8.560;2023-06-14T13:05:01;100241.66;;;25.61;59.58
31096;BME280;17749;51.962;8.560;2023-06-14T13:07:30;100236.75;;;25.47;60.19
31096;BME280;17749;51.962;8.560;2023-06-14T13:09:57;100249.19;;;25.31;59.98
31096;BME280;17749;51.962;8.560;2023-06-14T13:12:24;100250.72;;;25.16;59.55
31096;BME280;17749;51.962;8.560;2023-06-14T13:14:50;100242.31;;;25.27;59.62
31096;BME280;17749;51.962;8.560;2023-06-14T13:17:17;100238.03;;;25.25;60.06
31096;BME280;17749;51.962;8.560;2023-06-14T13:19:44;100246.84;;;25.36;60.78
31096;BME280;17749;51.962;8.560;2023-06-14T13:22:11;100235.94;;;25.36;60.43
31096;BME280;17749;51.962;8.560;2023-06-14T13:24:38;100242.72;;;25.05;59.85
31096;BME280;17749;51.962;8.560;2023-06-14T13:27:05;100225.06;;;24.81;60.27
31096;BME280;17749;51.962;8.560;2023-06-14T13:29:33;100231.66;;;24.79;60.08
31096;BME280;17749;51.962;8.560;2023-06-14T13:32:03;100242.28;;;24.72;60.72
31096;BME280;17749;51.962;8.560;2023-06-14T13:34:30;100239.66;;;24.80;60.27
31096;BME280;17749;51.962;8.560;2023-06-14T13:36:57;100233.56;;;24.96;61.49
31096;BME280;17749;51.962;8.560;2023-06-14T13:39:26;100243.25;;;25.18;61.73
31096;BME280;17749;51.962;8.560;2023-06-14T13:41:52;100238.75;;;25.45;62.40
31096;BME280;17749;51.962;8.560;2023-06-14T13:44:20;100225.28;;;25.43;59.75
31096;BME280;17749;51.962;8.560;2023-06-14T13:46:48;100238.13;;;25.51;62.29
31096;BME280;17749;51.962;8.560;2023-06-14T13:49:15;100242.09;;;25.74;61.92
31096;BME280;17749;51.962;8.560;2023-06-14T13:51:42;100241.13;;;25.75;60.52
31096;BME280;17749;51.962;8.560;2023-06-14T13:54:08;100238.28;;;25.67;60.43
31096;BME280;17749;51.962;8.560;2023-06-14T13:56:35;100238.84;;;25.53;59.57
31096;BME280;17749;51.962;8.560;2023-06-14T13:59:03;100236.41;;;25.32;60.04
31096;BME280;17749;51.962;8.560;2023-06-14T14:01:29;100226.72;;;25.20;60.20
31096;BME280;17749;51.962;8.560;2023-06-14T14:03:57;100222.84;;;25.22;60.55
31096;BME280;17749;51.962;8.560;2023-06-14T14:06:26;100223.63;;;25.32;60.16
31096;BME280;17749;51.962;8.560;2023-06-14T14:08:53;100228.53;;;25.29;59.34
31096;BME280;17749;51.962;8.560;2023-06-14T14:11:20;100224.31;;;25.17;61.21
31096;BME280;17749;51.962;8.560;2023-06-14T14:13:47;100215.72;;;25.39;61.15
31096;BME280;17749;51.962;8.560;2023-06-14T14:16:15;100223.78;;;25.49;60.36
31096;BME280;17749;51.962;8.560;2023-06-14T14:18:42;100227.00;;;25.44;60.11
31096;BME280;17749;51.962;8.560;2023-06-14T14:21:09;100219.72;;;25.17;60.41
31096;BME280;17749;51.962;8.560;2023-06-14T14:23:36;100222.84;;;24.95;61.24
31096;BME280;17749;51.962;8.560;2023-06-14T14:26:06;100221.72;;;24.87;61.11
31096;BME280;17749;51.962;8.560;2023-06-14T14:28:33;100222.44;;;24.89;61.73
31096;BME280;17749;51.962;8.560;2023-06-14T14:31:01;100223.47;;;25.06;61.65
31096;BME280;17749;51.962;8.560;2023-06-14T14:33:28;100221.94;;;25.31;61.96
31096;BME280;17749;51.962;8.560;2023-06-14T14:35:55;100226.13;;;25.44;62.11
31096;BME280;17749;51.962;8.560;2023-06-14T14:38:22;100229.41;;;25.29;62.16
31096;BME280;17749;51.962;8.560;2023-06-14T14:40:49;100234.75;;;25.21;61.82
31096;BME280;17749;51.962;8.560;2023-06-14T14:43:16;100217.97;;;24.88;61.81
31096;BME280;17749;51.962;8.560;2023-06-14T14:45:43;100225.84;;;24.64;62.25
31096;BME280;17749;51.962;8.560;2023-06-14T14:48:10;100228.59;;;24.54;63.12
31096;BME280;17749;51.962;8.560;2023-06-14T14:50:37;100234.63;;;24.48;63.44
31096;BME280;17749;51.962;8.560;2023-06-14T14:53:05;100230.63;;;24.33;62.60
31096;BME280;17749;51.962;8.560;2023-06-14T14:55:32;100223.75;;;24.28;63.00
31096;BME280;17749;51.962;8.560;2023-06-14T14:58:01;100226.47;;;24.38;63.65
31096;BME280;17749;51.962;8.560;2023-06-14T15:00:29;100224.00;;;24.55;63.61
31096;BME280;17749;51.962;8.560;2023-06-14T15:02:56;100214.69;;;24.85;64.60
31096;BME280;17749;51.962;8.560;2023-06-14T15:05:23;100219.19;;;25.04;64.05
31096;BME280;17749;51.962;8.560;2023-06-14T15:07:51;100222.72;;;25.14;63.39
31096;BME280;17749;51.962;8.560;2023-06-14T15:10:18;100222.44;;;25.17;61.85
31096;BME280;17749;51.962;8.560;2023-06-14T15:12:45;100224.91;;;25.10;62.71
31096;BME280;17749;51.962;8.560;2023-06-14T15:15:12;100218.53;;;25.20;61.65
31096;BME280;17749;51.962;8.560;2023-06-14T15:17:39;100221.34;;;25.28;61.33
31096;BME280;17749;51.962;8.560;2023-06-14T15:20:06;100224.41;;;25.43;62.07
31096;BME280;17749;51.962;8.560;2023-06-14T15:22:34;100221.78;;;25.51;61.18
31096;BME280;17749;51.962;8.560;2023-06-14T15:25:01;100214.75;;;25.48;61.20
31096;BME280;17749;51.962;8.560;2023-06-14T15:27:28;100219.59;;;25.36;60.94
31096;BME280;17749;51.962;8.560;2023-06-14T15:29:55;100219.97;;;25.24;62.11
31096;BME280;17749;51.962;8.560;2023-06-14T15:32:22;100225.09;;;25.27;62.85
31096;BME280;17749;51.962;8.560;2023-06-14T15:34:49;100221.69;;;25.15;62.87
31096;BME280;17749;51.962;8.560;2023-06-14T15:37:16;100222.75;;;25.04;63.22
31096;BME280;17749;51.962;8.560;2023-06-14T15:39:43;100223.72;;;25.13;65.21
31096;BME280;17749;51.962;8.560;2023-06-14T15:42:10;100222.00;;;25.12;64.51
31096;BME280;17749;51.962;8.560;2023-06-14T15:44:38;100226.28;;;25.24;63.66
31096;BME280;17749;51.962;8.560;2023-06-14T15:47:05;100221.44;;;25.18;64.15
31096;BME280;17749;51.962;8.560;2023-06-14T15:49:35;100214.53;;;25.14;64.13
31096;BME280;17749;51.962;8.560;2023-06-14T15:52:05;100226.91;;;25.18;64.86
31096;BME280;17749;51.962;8.560;2023-06-14T15:54:33;100220.00;;;25.14;63.99
31096;BME280;17749;51.962;8.560;2023-06-14T15:57:00;100216.56;;;25.12;64.34
31096;BME280;17749;51.962;8.560;2023-06-14T15:59:27;100207.09;;;25.16;64.55
31096;BME280;17749;51.962;8.560;2023-06-14T16:01:55;100212.56;;;25.06;63.95
31096;BME280;17749;51.962;8.560;2023-06-14T16:04:22;100214.84;;;25.11;63.72
31096;BME280;17749;51.962;8.560;2023-06-14T16:06:49;100201.44;;;25.00;63.81
31096;BME280;17749;51.962;8.560;2023-06-14T16:09:16;100210.03;;;25.05;63.67
31096;BME280;17749;51.962;8.560;2023-06-14T16:11:43;100212.34;;;25.00;64.23
31096;BME280;17749;51.962;8.560;2023-06-14T16:14:11;100207.88;;;24.99;64.05
31096;BME280;17749;51.962;8.560;2023-06-14T16:16:39;100203.50;;;24.88;64.19
31096;BME280;17749;51.962;8.560;2023-06-14T16:19:06;100201.84;;;24.77;65.05
31096;BME280;17749;51.962;8.560;2023-06-14T16:21:34;100202.25;;;24.82;66.52
31096;BME280;17749;51.962;8.560;2023-06-14T16:24:04;100196.41;;;24.77;65.03
31096;BME280;17749;51.962;8.560;2023-06-14T16:26:32;100198.91;;;24.61;65.21
31096;BME280;17749;51.962;8.560;2023-06-14T16:29:00;100200.81;;;24.51;65.52
31096;BME280;17749;51.962;8.560;2023-06-14T16:31:27;100197.78;;;24.44;65.76
31096;BME280;17749;51.962;8.560;2023-06-14T16:33:54;100203.53;;;24.41;65.83
31096;BME280;17749;51.962;8.560;2023-06-14T16:36:22;100202.88;;;24.29;66.42
31096;BME280;17749;51.962;8.560;2023-06-14T16:38:50;100203.97;;;24.36;66.67
31096;BME280;17749;51.962;8.560;2023-06-14T16:41:17;100202.97;;;24.37;67.55
31096;BME280;17749;51.962;8.560;2023-06-14T16:43:44;100207.72;;;24.25;65.78
31096;BME280;17749;51.962;8.560;2023-06-14T16:46:13;100204.78;;;23.99;65.41
31096;BME280;17749;51.962;8.560;2023-06-14T16:48:41;100206.63;;;23.89;65.36
31096;BME280;17749;51.962;8.560;2023-06-14T16:51:08;100204.94;;;23.88;65.84
31096;BME280;17749;51.962;8.560;2023-06-14T16:53:34;100209.94;;;23.83;65.93
31096;BME280;17749;51.962;8.560;2023-06-14T16:56:01;100209.22;;;23.81;66.07
31096;BME280;17749;51.962;8.560;2023-06-14T16:58:29;100214.66;;;23.81;66.47
31096;BME280;17749;51.962;8.560;2023-06-14T17:00:56;100207.53;;;23.80;66.53
31096;BME280;17749;51.962;8.560;2023-06-14T17:03:23;100215.25;;;23.75;64.63
31096;BME280;17749;51.962;8.560;2023-06-14T17:05:55;100214.06;;;23.68;65.32
31096;BME280;17749;51.962;8.560;2023-06-14T17:08:22;100213.94;;;23.59;64.80
31096;BME280;17749;51.962;8.560;2023-06-14T17:10:51;100220.94;;;23.52;65.15
31096;BME280;17749;51.962;8.560;2023-06-14T17:13:19;100214.63;;;23.52;65.48
31096;BME280;17749;51.962;8.560;2023-06-14T17:15:47;100208.34;;;23.51;66.35
31096;BME280;17749;51.962;8.560;2023-06-14T17:18:14;100221.22;;;23.49;66.11
31096;BME280;17749;51.962;8.560;2023-06-14T17:20:41;100212.63;;;23.44;66.19
31096;BME280;17749;51.962;8.560;2023-06-14T17:23:08;100221.19;;;23.39;66.17
31096;BME280;17749;51.962;8.560;2023-06-14T17:25:36;100217.91;;;23.36;67.22
31096;BME280;17749;51.962;8.560;2023-06-14T17:28:03;100216.91;;;23.27;67.00
31096;BME280;17749;51.962;8.560;2023-06-14T17:30:31;100219.75;;;23.26;66.98
31096;BME280;17749;51.962;8.560;2023-06-14T17:32:58;100218.47;;;23.20;67.03
31096;BME280;17749;51.962;8.560;2023-06-14T17:35:25;100224.31;;;23.15;66.63
31096;BME280;17749;51.962;8.560;2023-06-14T17:37:52;100221.16;;;23.10;67.12
31096;BME280;17749;51.962;8.560;2023-06-14T17:40:19;100231.56;;;23.05;67.32
31096;BME280;17749;51.962;8.560;2023-06-14T17:42:47;100222.28;;;22.98;67.44
31096;BME280;17749;51.962;8.560;2023-06-14T17:45:14;100225.97;;;22.97;67.90
31096;BME280;17749;51.962;8.560;2023-06-14T17:47:41;100224.38;;;22.94;68.46
31096;BME280;17749;51.962;8.560;2023-06-14T17:50:08;100232.50;;;22.94;69.18
31096;BME280;17749;51.962;8.560;2023-06-14T17:52:35;100223.63;;;22.83;69.05
31096;BME280;17749;51.962;8.560;2023-06-14T17:55:02;100217.88;;;22.76;69.07
31096;BME280;17749;51.962;8.560;2023-06-14T17:57:30;100224.59;;;22.72;69.96
31096;BME280;17749;51.962;8.560;2023-06-14T17:59:57;100230.69;;;22.64;69.80
31096;BME280;17749;51.962;8.560;2023-06-14T18:02:23;100234.38;;;22.63;69.73
31096;BME280;17749;51.962;8.560;2023-06-14T18:04:51;100231.22;;;22.58;69.91
31096;BME280;17749;51.962;8.560;2023-06-14T18:07:19;100237.19;;;22.52;70.35
31096;BME280;17749;51.962;8.560;2023-06-14T18:09:46;100241.19;;;22.48;70.10
31096;BME280;17749;51.962;8.560;2023-06-14T18:12:13;100236.28;;;22.42;70.08
31096;BME280;17749;51.962;8.560;2023-06-14T18:14:40;100235.16;;;22.44;69.94